createdAt,value
2023-06-04T00:01:47.759Z,97378.25
2023-06-04T00:04:17.512Z,97385.72
2023-06-04T00:06:45.104Z,97391.56
2023-06-04T00:09:12.087Z,97397.56
2023-06-04T00:11:39.271Z,97398.03
2023-06-04T00:14:06.728Z,97407.16
2023-06-04T00:16:36.537Z,97406.50
2023-06-04T00:19:04.210Z,97405.66
2023-06-04T00:21:31.344Z,97402.34
2023-06-04T00:23:58.573Z,97408.16
2023-06-04T00:26:26.179Z,97412.91
2023-06-04T00:28:53.357Z,97411.72
2023-06-04T00:31:20.669Z,97408.44
2023-06-04T00:33:47.585Z,97406.41
2023-06-04T00:36:15.084Z,97412.06
2023-06-04T00:38:42.450Z,97404.38
2023-06-04T00:41:09.629Z,97405.09
2023-06-04T00:43:37.350Z,97404.06
2023-06-04T00:46:05.144Z,97410.03
2023-06-04T00:48:32.084Z,97400.72
2023-06-04T00:50:59.464Z,97392.09
2023-06-04T00:53:27.354Z,97396.09
2023-06-04T00:55:54.172Z,97396.41
2023-06-04T00:58:21.666Z,97395.44
2023-06-04T01:00:49.537Z,97398.44
2023-06-04T01:03:22.795Z,97401.44
2023-06-04T01:05:57.317Z,97391.13
2023-06-04T01:08:25.275Z,97388.81
2023-06-04T01:10:59.124Z,97392.44
2023-06-04T01:13:26.388Z,97388.78
2023-06-04T01:15:53.359Z,97385.47
2023-06-04T01:18:30.206Z,97385.59
2023-06-04T01:20:57.220Z,97386.78
2023-06-04T01:23:37.097Z,97384.09
2023-06-04T01:26:05.857Z,97378.97
2023-06-04T01:28:36.718Z,97385.94
2023-06-04T01:31:06.104Z,97385.47
2023-06-04T01:33:33.259Z,97389.44
2023-06-04T01:36:02.158Z,97395.44
2023-06-04T01:38:29.355Z,97400.41
2023-06-04T01:40:57.740Z,97394.28
2023-06-04T01:43:27.385Z,97407.09
2023-06-04T01:45:55.836Z,97405.59
2023-06-04T01:48:25.855Z,97408.59
2023-06-04T01:50:52.878Z,97400.63
2023-06-04T01:53:20.048Z,97413.72
2023-06-04T01:55:47.340Z,97417.38
2023-06-04T01:58:14.163Z,97426.66
2023-06-04T02:00:41.178Z,97418.84
2023-06-04T02:03:12.203Z,97420.84
2023-06-04T02:05:39.498Z,97421.69
2023-06-04T02:08:06.784Z,97420.84
2023-06-04T02:10:54.341Z,97426.34
2023-06-04T02:13:21.840Z,97423.31
2023-06-04T02:15:55.042Z,97432.78
2023-06-04T02:18:26.714Z,97426.50
2023-06-04T02:20:53.638Z,97434.63
2023-06-04T02:23:22.041Z,97433.66
2023-06-04T02:25:52.544Z,97428.97
2023-06-04T02:28:19.349Z,97434.31
2023-06-04T02:30:49.849Z,97436.31
2023-06-04T02:33:17.245Z,97440.63
2023-06-04T02:35:47.250Z,97436.47
2023-06-04T02:38:17.605Z,97433.31
2023-06-04T02:40:48.006Z,97434.63
2023-06-04T02:43:15.426Z,97428.97
2023-06-04T02:45:45.968Z,97434.97
2023-06-04T02:48:12.836Z,97429.81
2023-06-04T02:50:40.555Z,97437.63
2023-06-04T02:53:07.514Z,97440.94
2023-06-04T02:55:35.389Z,97445.94
2023-06-04T02:58:02.134Z,97442.41
2023-06-04T03:00:29.260Z,97445.78
2023-06-04T03:03:02.534Z,97445.94
2023-06-04T03:05:33.151Z,97450.09
2023-06-04T03:08:06.192Z,97451.56
2023-06-04T03:10:35.988Z,97456.88
2023-06-04T03:13:03.246Z,97450.91
2023-06-04T03:15:30.106Z,97455.72
2023-06-04T03:17:58.331Z,97453.56
2023-06-04T03:20:25.625Z,97462.84
2023-06-04T03:22:55.470Z,97454.53
2023-06-04T03:25:22.457Z,97462.16
2023-06-04T03:27:56.602Z,97465.44
2023-06-04T03:30:27.109Z,97460.78
2023-06-04T03:32:53.917Z,97459.25
2023-06-04T03:35:20.810Z,97453.47
2023-06-04T03:37:47.909Z,97461.72
2023-06-04T03:40:14.938Z,97458.06
2023-06-04T03:42:42.383Z,97459.75
2023-06-04T03:45:10.106Z,97459.91
2023-06-04T03:47:37.005Z,97468.00
2023-06-04T03:50:06.836Z,97462.88
2023-06-04T03:52:34.178Z,97463.66
2023-06-04T03:55:01.698Z,97457.84
2023-06-04T03:57:32.108Z,97454.66
2023-06-04T03:59:58.842Z,97459.75
2023-06-04T04:02:29.264Z,97465.56
2023-06-04T04:04:58.358Z,97462.38
2023-06-04T04:07:25.836Z,97467.00
2023-06-04T04:09:56.734Z,97464.53
2023-06-04T04:12:23.744Z,97466.22
2023-06-04T04:14:53.848Z,97467.22
2023-06-04T04:17:20.790Z,97469.53
2023-06-04T04:19:51.125Z,97465.22
2023-06-04T04:22:21.812Z,97474.16
2023-06-04T04:24:48.738Z,97471.13
2023-06-04T04:27:17.036Z,97479.06
2023-06-04T04:29:44.663Z,97489.66
2023-06-04T04:32:12.246Z,97490.13
2023-06-04T04:34:43.971Z,97490.78
2023-06-04T04:37:10.818Z,97497.28
2023-06-04T04:39:38.248Z,97496.25
2023-06-04T04:42:05.768Z,97500.72
2023-06-04T04:44:32.541Z,97489.25
2023-06-04T04:46:59.503Z,97499.31
2023-06-04T04:49:26.979Z,97502.50
2023-06-04T04:51:53.907Z,97501.69
2023-06-04T04:54:22.051Z,97509.78
2023-06-04T04:56:53.496Z,97505.28
2023-06-04T04:59:25.655Z,97514.56
2023-06-04T05:01:52.507Z,97515.44
2023-06-04T05:04:19.740Z,97514.34
2023-06-04T05:06:47.610Z,97522.88
2023-06-04T05:09:14.255Z,97525.34
2023-06-04T05:11:41.452Z,97526.53
2023-06-04T05:14:08.609Z,97525.69
2023-06-04T05:16:41.272Z,97535.84
2023-06-04T05:19:13.402Z,97532.63
2023-06-04T05:21:44.916Z,97537.28
2023-06-04T05:24:12.597Z,97538.97
2023-06-04T05:26:40.944Z,97541.25
2023-06-04T05:29:08.926Z,97548.88
2023-06-04T05:31:36.265Z,97542.94
2023-06-04T05:34:08.156Z,97547.94
2023-06-04T05:36:36.210Z,97557.03
2023-06-04T05:39:05.950Z,97558.75
2023-06-04T05:41:33.075Z,97562.34
2023-06-04T05:43:59.981Z,97558.38
2023-06-04T05:46:26.998Z,97552.41
2023-06-04T05:48:55.200Z,97565.28
2023-06-04T05:51:22.839Z,97568.56
2023-06-04T05:53:49.692Z,97571.50
2023-06-04T05:56:22.255Z,97561.88
2023-06-04T05:58:53.700Z,97566.28
2023-06-04T06:01:21.272Z,97557.69
2023-06-04T06:03:48.180Z,97565.34
2023-06-04T06:06:15.509Z,97568.41
2023-06-04T06:08:42.726Z,97569.31
2023-06-04T06:11:11.398Z,97572.03
2023-06-04T06:13:38.870Z,97562.66
2023-06-04T06:16:06.010Z,97573.78
2023-06-04T06:18:34.082Z,97573.69
2023-06-04T06:21:01.034Z,97581.69
2023-06-04T06:23:27.887Z,97574.72
2023-06-04T06:25:54.652Z,97576.16
2023-06-04T06:28:21.790Z,97581.25
2023-06-04T06:30:49.005Z,97580.78
2023-06-04T06:33:17.350Z,97583.75
2023-06-04T06:35:47.693Z,97580.69
2023-06-04T06:38:17.138Z,97589.34
2023-06-04T06:40:45.646Z,97591.91
2023-06-04T06:43:12.612Z,97589.53
2023-06-04T06:45:39.725Z,97588.31
2023-06-04T06:48:06.655Z,97585.56
2023-06-04T06:50:36.847Z,97590.44
2023-06-04T06:53:04.441Z,97584.53
2023-06-04T06:55:31.259Z,97590.91
2023-06-04T06:58:01.147Z,97584.66
2023-06-04T07:00:31.615Z,97587.16
2023-06-04T07:02:58.664Z,97585.03
2023-06-04T07:05:25.889Z,97589.88
2023-06-04T07:07:53.357Z,97587.28
2023-06-04T07:10:20.172Z,97587.72
2023-06-04T07:12:47.140Z,97590.25
2023-06-04T07:15:14.225Z,97593.44
2023-06-04T07:17:41.254Z,97593.16
2023-06-04T07:20:10.899Z,97602.53
2023-06-04T07:22:37.940Z,97592.41
2023-06-04T07:25:05.204Z,97594.72
2023-06-04T07:27:32.209Z,97603.47
2023-06-04T07:29:59.162Z,97606.03
2023-06-04T07:32:26.194Z,97603.81
2023-06-04T07:34:56.279Z,97597.25
2023-06-04T07:37:23.026Z,97599.34
2023-06-04T07:39:50.402Z,97600.28
2023-06-04T07:42:17.907Z,97608.25
2023-06-04T07:44:45.076Z,97617.84
2023-06-04T07:47:11.978Z,97606.75
2023-06-04T07:49:47.433Z,97607.78
2023-06-04T07:52:21.438Z,97612.66
2023-06-04T07:54:48.816Z,97616.84
2023-06-04T07:57:16.158Z,97617.66
2023-06-04T07:59:43.254Z,97625.47
2023-06-04T08:02:13.219Z,97613.91
2023-06-04T08:04:41.533Z,97617.78
2023-06-04T08:07:08.862Z,97621.47
2023-06-04T08:09:36.647Z,97615.97
2023-06-04T08:12:03.827Z,97625.06
2023-06-04T08:14:31.901Z,97626.84
2023-06-04T08:16:59.048Z,97622.19
2023-06-04T08:19:29.445Z,97628.75
2023-06-04T08:21:56.984Z,97620.41
2023-06-04T08:24:24.233Z,97620.25
2023-06-04T08:26:51.654Z,97624.78
2023-06-04T08:29:18.633Z,97633.13
2023-06-04T08:31:48.414Z,97636.84
2023-06-04T08:34:15.235Z,97627.00
2023-06-04T08:36:42.244Z,97634.81
2023-06-04T08:39:11.026Z,97633.59
2023-06-04T08:41:56.896Z,97636.47
2023-06-04T08:44:23.763Z,97628.00
2023-06-04T08:46:54.899Z,97629.84
2023-06-04T08:49:23.399Z,97615.75
2023-06-04T08:51:50.480Z,97619.31
2023-06-04T08:54:17.513Z,97615.28
2023-06-04T08:56:45.325Z,97632.69
2023-06-04T08:59:12.394Z,97634.19
2023-06-04T09:01:39.615Z,97629.97
2023-06-04T09:04:11.866Z,97628.13
2023-06-04T09:06:41.435Z,97638.38
2023-06-04T09:09:11.268Z,97634.50
2023-06-04T09:11:43.366Z,97638.19
2023-06-04T09:14:12.687Z,97629.31
2023-06-04T09:16:46.507Z,97636.81
2023-06-04T09:19:18.286Z,97638.75
2023-06-04T09:22:03.988Z,97647.66
2023-06-04T09:24:54.185Z,97637.53
2023-06-04T09:27:27.794Z,97643.91
2023-06-04T09:29:57.705Z,97654.22
2023-06-04T09:32:25.424Z,97648.00
2023-06-04T09:34:54.113Z,97652.09
2023-06-04T09:37:24.273Z,97649.16
2023-06-04T09:39:57.577Z,97654.91
2023-06-04T09:42:25.154Z,97660.19
2023-06-04T09:44:57.466Z,97653.59
2023-06-04T09:47:24.321Z,97654.63
2023-06-04T09:49:53.644Z,97651.13
2023-06-04T09:52:22.472Z,97647.50
2023-06-04T09:54:51.783Z,97655.63
2023-06-04T09:57:20.181Z,97663.25
2023-06-04T09:59:50.854Z,97656.31
2023-06-04T10:02:25.670Z,97661.53
2023-06-04T10:04:59.945Z,97663.34
2023-06-04T10:07:27.893Z,97653.88
2023-06-04T10:09:55.907Z,97660.25
2023-06-04T10:12:30.205Z,97653.47
2023-06-04T10:15:12.015Z,97663.66
2023-06-04T10:17:39.494Z,97664.50
2023-06-04T10:20:11.698Z,97657.53
2023-06-04T10:22:39.553Z,97655.44
2023-06-04T10:25:07.846Z,97663.75
2023-06-04T10:27:38.039Z,97670.31
2023-06-04T10:30:12.331Z,97660.44
2023-06-04T10:32:39.549Z,97667.84
2023-06-04T10:35:10.747Z,97664.50
2023-06-04T10:37:37.645Z,97663.28
2023-06-04T10:40:07.699Z,97661.66
2023-06-04T10:42:44.375Z,97661.66
2023-06-04T10:45:12.260Z,97660.44
2023-06-04T10:47:42.217Z,97665.81
2023-06-04T10:50:14.760Z,97651.38
2023-06-04T10:52:55.499Z,97649.28
2023-06-04T10:55:22.725Z,97638.53
2023-06-04T10:57:57.783Z,97645.78
2023-06-04T11:00:42.770Z,97643.72
2023-06-04T11:03:12.436Z,97645.16
2023-06-04T11:05:47.583Z,97649.69
2023-06-04T11:08:15.688Z,97656.22
2023-06-04T11:10:44.897Z,97666.47
2023-06-04T11:13:12.449Z,97666.84
2023-06-04T11:15:42.272Z,97666.94
2023-06-04T11:18:10.190Z,97670.38
2023-06-04T11:20:37.234Z,97667.41
2023-06-04T11:23:04.408Z,97673.69
2023-06-04T11:25:32.592Z,97669.25
2023-06-04T11:27:59.559Z,97666.75
2023-06-04T11:30:26.661Z,97669.81
2023-06-04T11:33:06.749Z,97671.59
2023-06-04T11:35:42.814Z,97672.75
2023-06-04T11:38:10.987Z,97687.03
2023-06-04T11:40:37.905Z,97668.75
2023-06-04T11:43:04.887Z,97679.38
2023-06-04T11:45:31.891Z,97698.47
2023-06-04T11:48:01.433Z,97690.38
2023-06-04T11:50:30.411Z,97700.09
2023-06-04T11:52:57.755Z,97689.25
2023-06-04T11:55:25.899Z,97696.63
2023-06-04T11:57:53.038Z,97698.66
2023-06-04T12:00:21.300Z,97693.31
2023-06-04T12:02:56.226Z,97704.06
2023-06-04T12:05:33.758Z,97695.88
2023-06-04T12:08:11.791Z,97705.31
2023-06-04T12:10:42.903Z,97702.06
2023-06-04T12:13:10.891Z,97703.13
2023-06-04T12:15:38.186Z,97706.66
2023-06-04T12:18:07.776Z,97700.09
2023-06-04T12:20:39.410Z,97710.59
2023-06-04T12:23:07.441Z,97710.69
2023-06-04T12:25:35.357Z,97712.84
2023-06-04T12:28:04.366Z,97714.94
2023-06-04T12:30:38.766Z,97719.91
2023-06-04T12:33:05.765Z,97715.38
2023-06-04T12:35:35.077Z,97712.53
2023-06-04T12:38:05.181Z,97720.13
2023-06-04T12:40:32.058Z,97721.34
2023-06-04T12:42:59.234Z,97717.28
2023-06-04T12:45:27.070Z,97725.16
2023-06-04T12:47:53.905Z,97720.28
2023-06-04T12:50:22.654Z,97710.66
2023-06-04T12:52:49.875Z,97720.97
2023-06-04T12:55:16.844Z,97721.63
2023-06-04T12:57:45.894Z,97728.50
2023-06-04T13:00:13.390Z,97729.38
2023-06-04T13:02:40.387Z,97732.69
2023-06-04T13:05:07.820Z,97733.16
2023-06-04T13:07:34.598Z,97739.25
2023-06-04T13:10:01.891Z,97735.13
2023-06-04T13:12:32.117Z,97730.75
2023-06-04T13:14:59.148Z,97733.91
2023-06-04T13:17:26.344Z,97726.06
2023-06-04T13:19:53.824Z,97740.47
2023-06-04T13:22:20.588Z,97738.34
2023-06-04T13:24:47.450Z,97735.31
2023-06-04T13:27:14.429Z,97743.81
2023-06-04T13:29:43.731Z,97742.53
2023-06-04T13:32:12.250Z,97739.41
2023-06-04T13:34:39.198Z,97747.63
2023-06-04T13:37:07.342Z,97748.91
2023-06-04T13:39:34.377Z,97742.69
2023-06-04T13:42:01.195Z,97741.28
2023-06-04T13:44:30.064Z,97739.91
2023-06-04T13:46:59.037Z,97747.03
2023-06-04T13:49:26.381Z,97736.06
2023-06-04T13:51:53.137Z,97749.41
2023-06-04T13:54:19.956Z,97750.16
2023-06-04T13:56:47.228Z,97746.31
2023-06-04T13:59:14.020Z,97746.06
2023-06-04T14:01:41.925Z,97748.22
2023-06-04T14:04:08.860Z,97750.38
2023-06-04T14:06:39.904Z,97750.56
2023-06-04T14:09:08.603Z,97745.38
2023-06-04T14:11:35.921Z,97745.44
2023-06-04T14:14:08.138Z,97751.13
2023-06-04T14:16:35.700Z,97746.66
2023-06-04T14:19:02.882Z,97739.41
2023-06-04T14:21:33.384Z,97748.78
2023-06-04T14:24:06.247Z,97745.41
2023-06-04T14:26:33.949Z,97742.13
2023-06-04T14:29:16.030Z,97753.25
2023-06-04T14:31:43.772Z,97751.94
2023-06-04T14:34:10.686Z,97748.13
2023-06-04T14:36:37.729Z,97734.66
2023-06-04T14:39:04.594Z,97748.66
2023-06-04T14:41:34.514Z,97743.81
2023-06-04T14:44:01.387Z,97741.13
2023-06-04T14:46:28.555Z,97737.47
2023-06-04T14:48:55.668Z,97742.44
2023-06-04T14:51:25.516Z,97738.47
2023-06-04T14:53:52.473Z,97739.97
2023-06-04T14:56:19.783Z,97727.81
2023-06-04T14:58:46.655Z,97730.78
2023-06-04T15:01:13.526Z,97727.16
2023-06-04T15:03:41.447Z,97730.16
2023-06-04T15:06:18.708Z,97728.13
2023-06-04T15:08:47.059Z,97729.31
2023-06-04T15:11:16.678Z,97717.84
2023-06-04T15:13:43.671Z,97721.97
2023-06-04T15:16:10.691Z,97719.97
2023-06-04T15:18:37.504Z,97715.34
2023-06-04T15:21:04.586Z,97713.50
2023-06-04T15:23:31.416Z,97712.84
2023-06-04T15:25:58.226Z,97719.84
2023-06-04T15:28:24.955Z,97713.53
2023-06-04T15:30:53.529Z,97725.22
2023-06-04T15:33:20.934Z,97724.69
2023-06-04T15:35:47.859Z,97718.09
2023-06-04T15:38:14.744Z,97717.56
2023-06-04T15:40:42.254Z,97721.22
2023-06-04T15:43:09.401Z,97715.91
2023-06-04T15:45:36.678Z,97721.72
2023-06-04T15:48:03.652Z,97721.34
2023-06-04T15:50:31.347Z,97718.91
2023-06-04T15:52:58.079Z,97723.38
2023-06-04T15:55:25.934Z,97715.91
2023-06-04T15:57:53.140Z,97727.41
2023-06-04T16:00:20.431Z,97730.53
2023-06-04T16:02:53.395Z,97733.53
2023-06-04T16:05:20.378Z,97730.25
2023-06-04T16:07:50.796Z,97730.22
2023-06-04T16:10:17.787Z,97724.69
2023-06-04T16:12:44.689Z,97731.22
2023-06-04T16:15:11.898Z,97735.19
2023-06-04T16:17:39.498Z,97717.22
2023-06-04T16:20:07.312Z,97722.53
2023-06-04T16:22:34.203Z,97728.22
2023-06-04T16:25:03.905Z,97730.19
2023-06-04T16:27:30.826Z,97730.88
2023-06-04T16:29:57.727Z,97732.38
2023-06-04T16:32:27.196Z,97736.16
2023-06-04T16:34:54.600Z,97739.34
2023-06-04T16:37:22.105Z,97740.38
2023-06-04T16:39:49.011Z,97740.38
2023-06-04T16:42:17.036Z,97742.03
2023-06-04T16:44:43.853Z,97733.19
2023-06-04T16:47:10.782Z,97725.22
2023-06-04T16:49:37.557Z,97730.25
2023-06-04T16:52:05.494Z,97729.75
2023-06-04T16:54:32.958Z,97726.59
2023-06-04T16:56:59.850Z,97737.88
2023-06-04T16:59:31.708Z,97736.91
2023-06-04T17:01:59.627Z,97741.22
2023-06-04T17:04:26.473Z,97739.56
2023-06-04T17:06:53.479Z,97738.75
2023-06-04T17:09:20.595Z,97732.06
2023-06-04T17:11:48.251Z,97742.72
2023-06-04T17:14:15.407Z,97742.72
2023-06-04T17:16:42.257Z,97745.56
2023-06-04T17:19:09.073Z,97748.56
2023-06-04T17:21:36.020Z,97743.44
2023-06-04T17:24:03.858Z,97747.56
2023-06-04T17:26:31.413Z,97753.38
2023-06-04T17:28:58.562Z,97744.06
2023-06-04T17:31:25.575Z,97753.75
2023-06-04T17:33:52.624Z,97744.59
2023-06-04T17:36:21.140Z,97741.78
2023-06-04T17:38:49.969Z,97741.78
2023-06-04T17:41:17.328Z,97736.78
2023-06-04T17:43:44.158Z,97741.28
2023-06-04T17:46:11.637Z,97744.63
2023-06-04T17:48:38.754Z,97739.31
2023-06-04T17:51:06.095Z,97741.97
2023-06-04T17:53:33.860Z,97751.28
2023-06-04T17:56:00.460Z,97748.28
2023-06-04T17:58:27.605Z,97753.28
2023-06-04T18:00:55.830Z,97754.28
2023-06-04T18:03:25.879Z,97752.09
2023-06-04T18:05:53.369Z,97758.44
2023-06-04T18:08:20.563Z,97753.31
2023-06-04T18:10:48.525Z,97751.78
2023-06-04T18:13:16.582Z,97765.09
2023-06-04T18:15:44.220Z,97762.63
2023-06-04T18:18:11.375Z,97759.47
2023-06-04T18:20:39.773Z,97761.94
2023-06-04T18:23:07.116Z,97767.25
2023-06-04T18:25:34.996Z,97764.28
2023-06-04T18:28:02.204Z,97761.25
2023-06-04T18:30:32.607Z,97764.94
2023-06-04T18:33:03.251Z,97755.94
2023-06-04T18:35:37.854Z,97764.28
2023-06-04T18:38:07.144Z,97759.94
2023-06-04T18:40:36.689Z,97756.97
2023-06-04T18:43:06.592Z,97757.78
2023-06-04T18:45:34.374Z,97760.63
2023-06-04T18:48:07.273Z,97763.28
2023-06-04T18:50:40.160Z,97755.13
2023-06-04T18:53:33.523Z,97757.63
2023-06-04T18:56:10.764Z,97764.94
2023-06-04T18:59:29.991Z,97761.28
2023-06-04T19:01:57.475Z,97762.09
2023-06-04T19:04:24.836Z,97762.94
2023-06-04T19:06:51.817Z,97771.59
2023-06-04T19:09:19.083Z,97777.22
2023-06-04T19:11:46.139Z,97767.59
2023-06-04T19:14:13.088Z,97777.56
2023-06-04T19:16:40.254Z,97783.88
2023-06-04T19:19:10.102Z,97778.56
2023-06-04T19:21:37.853Z,97783.38
2023-06-04T19:24:06.505Z,97781.88
2023-06-04T19:26:43.452Z,97781.22
2023-06-04T19:29:11.593Z,97791.03
2023-06-04T19:31:42.029Z,97781.22
2023-06-04T19:34:11.617Z,97770.25
2023-06-04T19:36:38.579Z,97780.22
2023-06-04T19:39:05.776Z,97793.88
2023-06-04T19:41:32.806Z,97788.22
2023-06-04T19:44:02.392Z,97787.22
2023-06-04T19:46:30.086Z,97793.03
2023-06-04T19:48:59.517Z,97799.84
2023-06-04T19:51:30.686Z,97793.19
2023-06-04T19:53:57.892Z,97783.06
2023-06-04T19:56:26.888Z,97783.06
2023-06-04T19:58:54.450Z,97783.22
2023-06-04T20:01:21.406Z,97785.53
2023-06-04T20:03:52.375Z,97780.41
2023-06-04T20:06:22.670Z,97777.41
2023-06-04T20:08:49.996Z,97776.22
2023-06-04T20:11:17.641Z,97776.41
2023-06-04T20:13:45.058Z,97779.53
2023-06-04T20:16:12.287Z,97771.56
2023-06-04T20:18:39.301Z,97763.25
2023-06-04T20:21:09.190Z,97766.28
2023-06-04T20:23:36.907Z,97760.78
2023-06-04T20:26:03.656Z,97770.25
2023-06-04T20:28:32.373Z,97775.22
2023-06-04T20:31:00.285Z,97772.94
2023-06-04T20:33:30.188Z,97778.56
2023-06-04T20:35:58.180Z,97775.22
2023-06-04T20:38:25.251Z,97777.56
2023-06-04T20:40:52.117Z,97778.25
2023-06-04T20:43:19.170Z,97772.25
2023-06-04T20:45:46.069Z,97787.19
2023-06-04T20:48:13.030Z,97779.06
2023-06-04T20:50:39.795Z,97775.56
2023-06-04T20:53:06.980Z,97767.75
2023-06-04T20:55:36.232Z,97759.13
2023-06-04T20:58:06.323Z,97770.91
2023-06-04T21:00:33.179Z,97763.22
2023-06-04T21:03:00.232Z,97763.22
2023-06-04T21:05:27.331Z,97753.75
2023-06-04T21:07:59.829Z,97751.31
2023-06-04T21:10:28.330Z,97739.50
2023-06-04T21:12:55.293Z,97733.69
2023-06-04T21:15:22.800Z,97728.53
2023-06-04T21:17:50.640Z,97725.88
2023-06-04T21:20:17.587Z,97729.69
2023-06-04T21:22:44.358Z,97735.97
2023-06-04T21:25:11.697Z,97729.50
2023-06-04T21:27:38.592Z,97728.69
2023-06-04T21:30:07.018Z,97723.38
2023-06-04T21:32:35.573Z,97727.34
2023-06-04T21:35:02.942Z,97719.69
2023-06-04T21:37:30.182Z,97723.00
2023-06-04T21:39:57.616Z,97719.03
2023-06-04T21:42:24.540Z,97721.03
2023-06-04T21:44:51.847Z,97729.81
2023-06-04T21:47:19.299Z,97733.31
2023-06-04T21:49:46.089Z,97730.63
2023-06-04T21:52:21.813Z,97730.97
2023-06-04T21:54:55.449Z,97733.94
2023-06-04T21:57:22.419Z,97740.22
2023-06-04T21:59:49.207Z,97732.91
2023-06-04T22:02:16.083Z,97736.53
2023-06-04T22:04:43.641Z,97731.53
2023-06-04T22:07:10.890Z,97732.88
2023-06-04T22:09:38.084Z,97729.56
2023-06-04T22:27:35.225Z,97723.88
2023-06-04T22:30:02.138Z,97719.69
2023-06-04T22:32:29.361Z,97731.81
2023-06-04T22:34:56.764Z,97735.97
2023-06-04T22:37:23.974Z,97732.13
2023-06-04T22:39:50.858Z,97726.81
2023-06-04T22:42:17.659Z,97729.44
2023-06-04T22:44:45.187Z,97730.06
2023-06-04T22:47:12.347Z,97740.03
2023-06-04T22:49:53.368Z,97738.03
2023-06-04T22:52:21.479Z,97724.88
2023-06-04T22:54:48.698Z,97719.88
2023-06-04T22:57:16.003Z,97734.81
2023-06-04T22:59:42.951Z,97738.78
2023-06-04T23:02:09.869Z,97734.63
2023-06-04T23:04:37.980Z,97733.16
2023-06-04T23:07:05.113Z,97730.50
2023-06-04T23:09:32.191Z,97713.91
2023-06-04T23:12:02.910Z,97727.72
2023-06-04T23:14:31.015Z,97729.69
2023-06-04T23:16:58.562Z,97736.50
2023-06-04T23:19:25.941Z,97740.13
2023-06-04T23:21:52.997Z,97724.16
2023-06-04T23:24:20.053Z,97725.16
2023-06-04T23:26:47.026Z,97725.19
2023-06-04T23:29:13.977Z,97731.84
2023-06-04T23:31:41.008Z,97727.53
2023-06-04T23:34:08.659Z,97721.38
2023-06-04T23:36:36.053Z,97725.03
2023-06-04T23:39:03.022Z,97717.53
2023-06-04T23:41:30.036Z,97712.53
2023-06-04T23:43:58.588Z,97708.56
2023-06-04T23:46:26.302Z,97683.81
2023-06-04T23:48:53.190Z,97714.53
2023-06-04T23:51:20.265Z,97724.75
2023-06-04T23:53:48.080Z,97719.56
2023-06-04T23:56:17.533Z,97731.75
2023-06-04T23:58:45.172Z,97723.94
